sensor_id;sensor_type;location;lat;lon;timestamp;temperature;humidity
39815;DHT22;25495;45.948;4.568;2022-08-19T00:01:44;17.60;99.90
39815;DHT22;25495;45.948;4.568;2022-08-19T00:04:12;17.60;99.90
39815;DHT22;25495;45.948;4.568;2022-08-19T00:06:39;17.60;99.90
39815;DHT22;25495;45.948;4.568;2022-08-19T00:09:08;17.60;99.90
39815;DHT22;25495;45.948;4.568;2022-08-19T00:11:35;17.70;99.90
39815;DHT22;25495;45.948;4.568;2022-08-19T00:14:04;17.70;99.90
39815;DHT22;25495;45.948;4.568;2022-08-19T00:16:30;17.60;99.90
39815;DHT22;25495;45.948;4.568;2022-08-19T00:18:56;17.50;99.90
39815;DHT22;25495;45.948;4.568;2022-08-19T00:21:22;17.60;99.90
39815;DHT22;25495;45.948;4.568;2022-08-19T00:23:48;17.50;99.90
39815;DHT22;25495;45.948;4.568;2022-08-19T00:26:14;17.50;99.90
39815;DHT22;25495;45.948;4.568;2022-08-19T00:28:40;17.40;99.90
39815;DHT22;25495;45.948;4.568;2022-08-19T00:31:08;17.50;99.90
39815;DHT22;25495;45.948;4.568;2022-08-19T00:33:34;17.40;99.90
39815;DHT22;25495;45.948;4.568;2022-08-19T00:36:05;17.50;99.90
39815;DHT22;25495;45.948;4.568;2022-08-19T00:38:33;17.40;99.90
39815;DHT22;25495;45.948;4.568;2022-08-19T00:40:59;17.40;99.90
39815;DHT22;25495;45.948;4.568;2022-08-19T00:43:26;17.50;99.90
39815;DHT22;25495;45.948;4.568;2022-08-19T00:45:52;17.40;99.90
39815;DHT22;25495;45.948;4.568;2022-08-19T00:48:19;17.40;99.90
39815;DHT22;25495;45.948;4.568;2022-08-19T00:50:48;17.40;99.90
39815;DHT22;25495;45.948;4.568;2022-08-19T00:53:16;17.40;99.90
39815;DHT22;25495;45.948;4.568;2022-08-19T00:55:48;17.40;99.90
39815;DHT22;25495;45.948;4.568;2022-08-19T00:58:17;17.40;99.90
39815;DHT22;25495;45.948;4.568;2022-08-19T01:00:45;17.40;99.90
39815;DHT22;25495;45.948;4.568;2022-08-19T01:03:14;17.50;99.90
39815;DHT22;25495;45.948;4.568;2022-08-19T01:05:42;17.40;99.90
39815;DHT22;25495;45.948;4.568;2022-08-19T01:08:08;17.40;99.90
39815;DHT22;25495;45.948;4.568;2022-08-19T01:10:39;17.40;99.90
39815;DHT22;25495;45.948;4.568;2022-08-19T01:13:06;17.40;99.90
39815;DHT22;25495;45.948;4.568;2022-08-19T01:15:38;17.50;99.90
39815;DHT22;25495;45.948;4.568;2022-08-19T01:18:06;17.50;99.90
39815;DHT22;25495;45.948;4.568;2022-08-19T01:20:34;17.40;99.90
39815;DHT22;25495;45.948;4.568;2022-08-19T01:23:00;17.40;99.90
39815;DHT22;25495;45.948;4.568;2022-08-19T01:25:49;17.40;99.90
39815;DHT22;25495;45.948;4.568;2022-08-19T01:28:18;17.40;99.90
39815;DHT22;25495;45.948;4.568;2022-08-19T01:30:45;17.30;99.90
39815;DHT22;25495;45.948;4.568;2022-08-19T01:33:12;17.40;99.90
39815;DHT22;25495;45.948;4.568;2022-08-19T01:35:38;17.40;99.90
39815;DHT22;25495;45.948;4.568;2022-08-19T01:38:07;17.30;99.90
39815;DHT22;25495;45.948;4.568;2022-08-19T01:40:36;17.40;99.90
39815;DHT22;25495;45.948;4.568;2022-08-19T01:43:05;17.40;99.90
39815;DHT22;25495;45.948;4.568;2022-08-19T01:45:34;17.40;99.90
39815;DHT22;25495;45.948;4.568;2022-08-19T01:48:00;17.30;99.90
39815;DHT22;25495;45.948;4.568;2022-08-19T01:50:26;17.30;99.90
39815;DHT22;25495;45.948;4.568;2022-08-19T01:52:53;17.30;99.90
39815;DHT22;25495;45.948;4.568;2022-08-19T01:55:20;17.30;99.90
39815;DHT22;25495;45.948;4.568;2022-08-19T01:57:50;17.30;99.90
39815;DHT22;25495;45.948;4.568;2022-08-19T02:00:18;17.40;99.90
39815;DHT22;25495;45.948;4.568;2022-08-19T02:02:44;17.30;99.90
39815;DHT22;25495;45.948;4.568;2022-08-19T02:05:11;17.30;99.90
39815;DHT22;25495;45.948;4.568;2022-08-19T02:07:39;17.30;99.90
39815;DHT22;25495;45.948;4.568;2022-08-19T02:10:08;17.30;99.90
39815;DHT22;25495;45.948;4.568;2022-08-19T02:12:34;17.30;99.90
39815;DHT22;25495;45.948;4.568;2022-08-19T02:15:01;17.30;99.90
39815;DHT22;25495;45.948;4.568;2022-08-19T02:17:28;17.30;99.90
39815;DHT22;25495;45.948;4.568;2022-08-19T02:19:57;17.30;99.90
39815;DHT22;25495;45.948;4.568;2022-08-19T02:22:24;17.30;99.90
39815;DHT22;25495;45.948;4.568;2022-08-19T02:24:52;17.30;99.90
39815;DHT22;25495;45.948;4.568;2022-08-19T02:27:18;17.30;99.90
39815;DHT22;25495;45.948;4.568;2022-08-19T02:29:46;17.30;99.90
39815;DHT22;25495;45.948;4.568;2022-08-19T02:32:12;17.30;99.90
39815;DHT22;25495;45.948;4.568;2022-08-19T02:34:39;17.30;99.90
39815;DHT22;25495;45.948;4.568;2022-08-19T02:37:05;17.30;99.90
39815;DHT22;25495;45.948;4.568;2022-08-19T02:39:31;17.40;99.90
39815;DHT22;25495;45.948;4.568;2022-08-19T02:41:56;17.40;99.90
39815;DHT22;25495;45.948;4.568;2022-08-19T02:44:24;17.40;99.90
39815;DHT22;25495;45.948;4.568;2022-08-19T02:46:50;17.40;99.90
39815;DHT22;25495;45.948;4.568;2022-08-19T02:49:16;17.30;99.90
39815;DHT22;25495;45.948;4.568;2022-08-19T02:51:43;17.40;99.90
39815;DHT22;25495;45.948;4.568;2022-08-19T02:54:11;17.30;99.90
39815;DHT22;25495;45.948;4.568;2022-08-19T02:56:39;17.40;99.90
39815;DHT22;25495;45.948;4.568;2022-08-19T02:59:06;17.30;99.90
39815;DHT22;25495;45.948;4.568;2022-08-19T03:01:38;17.40;99.90
39815;DHT22;25495;45.948;4.568;2022-08-19T03:04:06;17.30;99.90
39815;DHT22;25495;45.948;4.568;2022-08-19T03:06:34;17.30;99.90
39815;DHT22;25495;45.948;4.568;2022-08-19T03:09:01;17.30;99.90
39815;DHT22;25495;45.948;4.568;2022-08-19T03:11:30;17.30;99.90
39815;DHT22;25495;45.948;4.568;2022-08-19T03:13:56;17.30;99.90
39815;DHT22;25495;45.948;4.568;2022-08-19T03:16:24;17.30;99.90
39815;DHT22;25495;45.948;4.568;2022-08-19T03:18:51;17.30;99.90
39815;DHT22;25495;45.948;4.568;2022-08-19T03:21:21;17.30;99.90
39815;DHT22;25495;45.948;4.568;2022-08-19T03:23:47;17.30;99.90
39815;DHT22;25495;45.948;4.568;2022-08-19T03:26:13;17.30;99.90
39815;DHT22;25495;45.948;4.568;2022-08-19T03:28:43;17.30;99.90
39815;DHT22;25495;45.948;4.568;2022-08-19T03:31:11;17.30;99.90
39815;DHT22;25495;45.948;4.568;2022-08-19T03:33:38;17.30;99.90
39815;DHT22;25495;45.948;4.568;2022-08-19T03:36:22;17.30;99.90
39815;DHT22;25495;45.948;4.568;2022-08-19T03:39:00;17.30;99.90
39815;DHT22;25495;45.948;4.568;2022-08-19T03:41:28;17.30;99.90
39815;DHT22;25495;45.948;4.568;2022-08-19T03:43:56;17.30;99.90
39815;DHT22;25495;45.948;4.568;2022-08-19T03:46:27;17.30;99.90
39815;DHT22;25495;45.948;4.568;2022-08-19T03:48:56;17.30;99.90
39815;DHT22;25495;45.948;4.568;2022-08-19T03:51:32;17.30;99.90
39815;DHT22;25495;45.948;4.568;2022-08-19T03:54:00;17.40;99.90
39815;DHT22;25495;45.948;4.568;2022-08-19T03:56:27;17.30;99.90
39815;DHT22;25495;45.948;4.568;2022-08-19T03:58:57;17.40;99.90
39815;DHT22;25495;45.948;4.568;2022-08-19T04:01:25;17.30;99.90
39815;DHT22;25495;45.948;4.568;2022-08-19T04:03:55;17.30;99.90
39815;DHT22;25495;45.948;4.568;2022-08-19T04:06:31;17.30;99.90
39815;DHT22;25495;45.948;4.568;2022-08-19T04:08:59;17.30;99.90
39815;DHT22;25495;45.948;4.568;2022-08-19T04:11:36;17.40;99.90
39815;DHT22;25495;45.948;4.568;2022-08-19T04:14:07;17.40;99.90
39815;DHT22;25495;45.948;4.568;2022-08-19T04:16:34;17.40;99.90
39815;DHT22;25495;45.948;4.568;2022-08-19T04:19:01;17.40;99.90
39815;DHT22;25495;45.948;4.568;2022-08-19T04:21:28;17.40;99.90
39815;DHT22;25495;45.948;4.568;2022-08-19T04:23:55;17.40;99.90
39815;DHT22;25495;45.948;4.568;2022-08-19T04:26:24;17.30;99.90
39815;DHT22;25495;45.948;4.568;2022-08-19T04:28:50;17.30;99.90
39815;DHT22;25495;45.948;4.568;2022-08-19T04:31:19;17.40;99.90
39815;DHT22;25495;45.948;4.568;2022-08-19T04:33:46;17.40;99.90
39815;DHT22;25495;45.948;4.568;2022-08-19T04:36:21;17.40;99.90
39815;DHT22;25495;45.948;4.568;2022-08-19T04:38:54;17.40;99.90
39815;DHT22;25495;45.948;4.568;2022-08-19T04:41:20;17.40;99.90
39815;DHT22;25495;45.948;4.568;2022-08-19T04:44:04;17.30;99.90
39815;DHT22;25495;45.948;4.568;2022-08-19T04:46:30;17.50;99.90
39815;DHT22;25495;45.948;4.568;2022-08-19T04:48:58;17.40;99.90
39815;DHT22;25495;45.948;4.568;2022-08-19T04:51:24;17.50;99.90
39815;DHT22;25495;45.948;4.568;2022-08-19T04:53:50;17.50;99.90
39815;DHT22;25495;45.948;4.568;2022-08-19T04:56:19;17.50;99.90
39815;DHT22;25495;45.948;4.568;2022-08-19T04:58:48;17.50;99.90
39815;DHT22;25495;45.948;4.568;2022-08-19T05:01:27;17.50;99.90
39815;DHT22;25495;45.948;4.568;2022-08-19T05:03:57;17.50;99.90
39815;DHT22;25495;45.948;4.568;2022-08-19T05:06:24;17.50;99.90
39815;DHT22;25495;45.948;4.568;2022-08-19T05:08:51;17.50;99.90
39815;DHT22;25495;45.948;4.568;2022-08-19T05:11:19;17.40;99.90
39815;DHT22;25495;45.948;4.568;2022-08-19T05:13:46;17.40;99.90
39815;DHT22;25495;45.948;4.568;2022-08-19T05:16:14;17.40;99.90
39815;DHT22;25495;45.948;4.568;2022-08-19T05:18:41;17.40;99.90
39815;DHT22;25495;45.948;4.568;2022-08-19T05:21:26;17.40;99.90
39815;DHT22;25495;45.948;4.568;2022-08-19T05:24:11;17.40;99.90
39815;DHT22;25495;45.948;4.568;2022-08-19T05:26:43;17.40;99.90
39815;DHT22;25495;45.948;4.568;2022-08-19T05:29:10;17.40;99.90
39815;DHT22;25495;45.948;4.568;2022-08-19T05:31:37;17.40;99.90
39815;DHT22;25495;45.948;4.568;2022-08-19T05:34:04;17.40;99.90
39815;DHT22;25495;45.948;4.568;2022-08-19T05:36:36;17.40;99.90
39815;DHT22;25495;45.948;4.568;2022-08-19T05:39:06;17.40;99.90
39815;DHT22;25495;45.948;4.568;2022-08-19T05:41:32;17.40;99.90
39815;DHT22;25495;45.948;4.568;2022-08-19T05:44:01;17.30;99.90
39815;DHT22;25495;45.948;4.568;2022-08-19T05:46:28;17.30;99.90
39815;DHT22;25495;45.948;4.568;2022-08-19T05:48:54;17.40;99.90
39815;DHT22;25495;45.948;4.568;2022-08-19T05:51:22;17.40;99.90
39815;DHT22;25495;45.948;4.568;2022-08-19T05:53:48;17.30;99.90
39815;DHT22;25495;45.948;4.568;2022-08-19T05:56:16;17.40;99.90
39815;DHT22;25495;45.948;4.568;2022-08-19T05:58:43;17.30;99.90
39815;DHT22;25495;45.948;4.568;2022-08-19T06:01:13;17.30;99.90
39815;DHT22;25495;45.948;4.568;2022-08-19T06:03:39;17.40;99.90
39815;DHT22;25495;45.948;4.568;2022-08-19T06:06:07;17.30;99.90
39815;DHT22;25495;45.948;4.568;2022-08-19T06:08:34;17.30;99.90
39815;DHT22;25495;45.948;4.568;2022-08-19T06:14:10;17.40;99.90
39815;DHT22;25495;45.948;4.568;2022-08-19T06:16:38;17.40;99.90
39815;DHT22;25495;45.948;4.568;2022-08-19T06:19:11;17.30;99.90
39815;DHT22;25495;45.948;4.568;2022-08-19T06:21:39;17.30;99.90
39815;DHT22;25495;45.948;4.568;2022-08-19T06:24:08;17.30;99.90
39815;DHT22;25495;45.948;4.568;2022-08-19T06:26:36;17.30;99.90
39815;DHT22;25495;45.948;4.568;2022-08-19T06:29:04;17.40;99.90
39815;DHT22;25495;45.948;4.568;2022-08-19T06:31:32;17.40;99.90
39815;DHT22;25495;45.948;4.568;2022-08-19T06:34:00;17.40;99.90
39815;DHT22;25495;45.948;4.568;2022-08-19T06:36:31;17.30;99.90
39815;DHT22;25495;45.948;4.568;2022-08-19T06:39:04;17.30;99.90
39815;DHT22;25495;45.948;4.568;2022-08-19T06:41:33;17.40;99.90
39815;DHT22;25495;45.948;4.568;2022-08-19T06:43:59;17.40;99.90
39815;DHT22;25495;45.948;4.568;2022-08-19T06:46:26;17.40;99.90
39815;DHT22;25495;45.948;4.568;2022-08-19T06:48:52;17.30;99.90
39815;DHT22;25495;45.948;4.568;2022-08-19T06:51:19;17.20;99.90
39815;DHT22;25495;45.948;4.568;2022-08-19T06:53:48;17.20;99.90
39815;DHT22;25495;45.948;4.568;2022-08-19T06:56:16;17.20;99.90
39815;DHT22;25495;45.948;4.568;2022-08-19T06:58:42;17.20;99.90
39815;DHT22;25495;45.948;4.568;2022-08-19T07:01:09;17.30;99.90
39815;DHT22;25495;45.948;4.568;2022-08-19T07:03:36;17.30;99.90
39815;DHT22;25495;45.948;4.568;2022-08-19T07:06:10;17.30;99.90
39815;DHT22;25495;45.948;4.568;2022-08-19T07:08:37;17.30;99.90
39815;DHT22;25495;45.948;4.568;2022-08-19T07:11:07;17.30;99.90
39815;DHT22;25495;45.948;4.568;2022-08-19T07:13:34;17.30;99.90
39815;DHT22;25495;45.948;4.568;2022-08-19T07:16:06;17.30;99.90
39815;DHT22;25495;45.948;4.568;2022-08-19T07:18:33;17.30;99.90
39815;DHT22;25495;45.948;4.568;2022-08-19T07:21:06;17.30;99.90
39815;DHT22;25495;45.948;4.568;2022-08-19T07:23:32;17.40;99.90
39815;DHT22;25495;45.948;4.568;2022-08-19T07:26:03;17.40;99.90
39815;DHT22;25495;45.948;4.568;2022-08-19T07:28:29;17.40;99.90
39815;DHT22;25495;45.948;4.568;2022-08-19T07:30:55;17.40;99.90
39815;DHT22;25495;45.948;4.568;2022-08-19T07:33:21;17.30;99.90
39815;DHT22;25495;45.948;4.568;2022-08-19T07:35:47;17.30;99.90
39815;DHT22;25495;45.948;4.568;2022-08-19T07:38:12;17.40;99.90
39815;DHT22;25495;45.948;4.568;2022-08-19T07:40:38;17.40;99.90
39815;DHT22;25495;45.948;4.568;2022-08-19T07:43:06;17.50;99.90
39815;DHT22;25495;45.948;4.568;2022-08-19T07:45:32;17.50;99.90
39815;DHT22;25495;45.948;4.568;2022-08-19T07:47:58;17.60;99.90
39815;DHT22;25495;45.948;4.568;2022-08-19T07:50:23;17.70;99.90
39815;DHT22;25495;45.948;4.568;2022-08-19T07:52:49;17.50;99.90
39815;DHT22;25495;45.948;4.568;2022-08-19T07:55:19;17.70;99.90
39815;DHT22;25495;45.948;4.568;2022-08-19T07:57:45;17.80;99.90
39815;DHT22;25495;45.948;4.568;2022-08-19T08:00:11;17.80;99.90
39815;DHT22;25495;45.948;4.568;2022-08-19T08:02:37;17.70;99.90
39815;DHT22;25495;45.948;4.568;2022-08-19T08:05:04;17.70;99.90
39815;DHT22;25495;45.948;4.568;2022-08-19T08:07:49;17.80;99.90
39815;DHT22;25495;45.948;4.568;2022-08-19T08:10:33;17.90;99.90
39815;DHT22;25495;45.948;4.568;2022-08-19T08:12:59;18.00;99.90
39815;DHT22;25495;45.948;4.568;2022-08-19T08:15:25;18.00;99.90
39815;DHT22;25495;45.948;4.568;2022-08-19T08:17:50;18.20;99.90
39815;DHT22;25495;45.948;4.568;2022-08-19T08:20:17;18.30;99.90
39815;DHT22;25495;45.948;4.568;2022-08-19T08:22:44;18.20;99.90
39815;DHT22;25495;45.948;4.568;2022-08-19T08:27:56;18.40;99.90
39815;DHT22;25495;45.948;4.568;2022-08-19T08:30:26;18.50;99.90
39815;DHT22;25495;45.948;4.568;2022-08-19T08:32:53;18.60;99.90
39815;DHT22;25495;45.948;4.568;2022-08-19T08:35:21;18.60;99.90
39815;DHT22;25495;45.948;4.568;2022-08-19T08:37:49;18.60;99.90
39815;DHT22;25495;45.948;4.568;2022-08-19T08:40:33;18.70;99.90
39815;DHT22;25495;45.948;4.568;2022-08-19T08:43:22;18.70;99.90
39815;DHT22;25495;45.948;4.568;2022-08-19T08:46:07;18.80;99.90
39815;DHT22;25495;45.948;4.568;2022-08-19T08:51:34;19.20;99.90
39815;DHT22;25495;45.948;4.568;2022-08-19T08:54:02;19.10;99.90
39815;DHT22;25495;45.948;4.568;2022-08-19T08:56:30;19.10;99.90
39815;DHT22;25495;45.948;4.568;2022-08-19T08:59:05;19.30;99.90
39815;DHT22;25495;45.948;4.568;2022-08-19T09:01:35;19.70;99.90
39815;DHT22;25495;45.948;4.568;2022-08-19T09:04:05;19.60;99.90
39815;DHT22;25495;45.948;4.568;2022-08-19T09:09:48;19.80;99.90
39815;DHT22;25495;45.948;4.568;2022-08-19T09:15:14;19.70;99.90
39815;DHT22;25495;45.948;4.568;2022-08-19T09:17:41;19.80;99.90
39815;DHT22;25495;45.948;4.568;2022-08-19T09:22:37;19.90;99.90
39815;DHT22;25495;45.948;4.568;2022-08-19T09:25:06;20.00;99.90
39815;DHT22;25495;45.948;4.568;2022-08-19T09:27:32;20.20;99.90
39815;DHT22;25495;45.948;4.568;2022-08-19T09:29:58;20.20;99.90
39815;DHT22;25495;45.948;4.568;2022-08-19T09:32:25;19.90;99.90
39815;DHT22;25495;45.948;4.568;2022-08-19T09:34:52;20.00;99.90
39815;DHT22;25495;45.948;4.568;2022-08-19T09:37:24;20.10;99.90
39815;DHT22;25495;45.948;4.568;2022-08-19T09:39:50;20.20;99.90
39815;DHT22;25495;45.948;4.568;2022-08-19T09:42:16;20.10;99.90
39815;DHT22;25495;45.948;4.568;2022-08-19T09:44:43;20.20;99.90
39815;DHT22;25495;45.948;4.568;2022-08-19T09:47:11;20.30;99.90
39815;DHT22;25495;45.948;4.568;2022-08-19T09:49:37;20.50;99.90
39815;DHT22;25495;45.948;4.568;2022-08-19T09:52:05;20.60;99.90
39815;DHT22;25495;45.948;4.568;2022-08-19T09:54:33;20.70;99.90
39815;DHT22;25495;45.948;4.568;2022-08-19T09:57:00;20.70;99.90
39815;DHT22;25495;45.948;4.568;2022-08-19T09:59:26;20.80;99.90
39815;DHT22;25495;45.948;4.568;2022-08-19T10:01:53;20.70;99.90
39815;DHT22;25495;45.948;4.568;2022-08-19T10:04:22;20.70;99.90
39815;DHT22;25495;45.948;4.568;2022-08-19T10:06:50;20.60;99.90
39815;DHT22;25495;45.948;4.568;2022-08-19T10:09:17;20.60;99.90
39815;DHT22;25495;45.948;4.568;2022-08-19T10:11:44;20.60;99.90
39815;DHT22;25495;45.948;4.568;2022-08-19T10:14:15;20.60;99.90
39815;DHT22;25495;45.948;4.568;2022-08-19T10:16:42;20.80;99.90
39815;DHT22;25495;45.948;4.568;2022-08-19T10:21:35;21.00;99.90
39815;DHT22;25495;45.948;4.568;2022-08-19T10:24:04;21.10;99.90
39815;DHT22;25495;45.948;4.568;2022-08-19T10:28:58;21.50;99.90
39815;DHT22;25495;45.948;4.568;2022-08-19T10:31:28;22.00;99.90
39815;DHT22;25495;45.948;4.568;2022-08-19T10:33:56;22.20;99.90
39815;DHT22;25495;45.948;4.568;2022-08-19T10:36:34;22.20;99.90
39815;DHT22;25495;45.948;4.568;2022-08-19T10:39:04;22.00;99.90
39815;DHT22;25495;45.948;4.568;2022-08-19T10:41:34;23.20;99.90
39815;DHT22;25495;45.948;4.568;2022-08-19T10:44:03;23.30;99.90
39815;DHT22;25495;45.948;4.568;2022-08-19T10:46:31;23.50;99.90
39815;DHT22;25495;45.948;4.568;2022-08-19T10:48:59;23.60;99.90
39815;DHT22;25495;45.948;4.568;2022-08-19T10:51:26;23.70;99.90
39815;DHT22;25495;45.948;4.568;2022-08-19T10:54:11;23.60;99.90
39815;DHT22;25495;45.948;4.568;2022-08-19T10:56:37;23.60;99.90
39815;DHT22;25495;45.948;4.568;2022-08-19T10:59:24;23.80;99.90
39815;DHT22;25495;45.948;4.568;2022-08-19T11:01:54;23.60;99.90
39815;DHT22;25495;45.948;4.568;2022-08-19T11:04:29;23.30;99.90
39815;DHT22;25495;45.948;4.568;2022-08-19T11:07:00;23.70;99.90
39815;DHT22;25495;45.948;4.568;2022-08-19T11:09:31;24.10;99.90
39815;DHT22;25495;45.948;4.568;2022-08-19T11:11:58;23.60;99.90
39815;DHT22;25495;45.948;4.568;2022-08-19T11:14:26;23.00;99.90
39815;DHT22;25495;45.948;4.568;2022-08-19T11:16:54;22.90;99.90
39815;DHT22;25495;45.948;4.568;2022-08-19T11:19:27;22.80;99.90
39815;DHT22;25495;45.948;4.568;2022-08-19T11:21:54;23.40;99.90
39815;DHT22;25495;45.948;4.568;2022-08-19T11:24:24;23.30;99.90
39815;DHT22;25495;45.948;4.568;2022-08-19T11:26:54;23.90;99.90
39815;DHT22;25495;45.948;4.568;2022-08-19T11:29:24;24.20;99.90
39815;DHT22;25495;45.948;4.568;2022-08-19T11:31:51;24.20;99.90
39815;DHT22;25495;45.948;4.568;2022-08-19T11:34:21;23.80;99.90
39815;DHT22;25495;45.948;4.568;2022-08-19T11:36:50;23.80;99.90
39815;DHT22;25495;45.948;4.568;2022-08-19T11:39:19;23.80;99.90
39815;DHT22;25495;45.948;4.568;2022-08-19T11:41:44;24.00;99.90
39815;DHT22;25495;45.948;4.568;2022-08-19T11:44:11;24.00;99.90
39815;DHT22;25495;45.948;4.568;2022-08-19T11:46:39;23.80;99.90
39815;DHT22;25495;45.948;4.568;2022-08-19T11:49:06;23.30;99.90
39815;DHT22;25495;45.948;4.568;2022-08-19T11:51:33;23.70;99.90
39815;DHT22;25495;45.948;4.568;2022-08-19T11:54:01;24.20;99.90
39815;DHT22;25495;45.948;4.568;2022-08-19T11:56:28;24.00;99.90
39815;DHT22;25495;45.948;4.568;2022-08-19T11:58:54;24.80;99.90
39815;DHT22;25495;45.948;4.568;2022-08-19T12:01:23;25.00;99.90
39815;DHT22;25495;45.948;4.568;2022-08-19T12:03:51;24.80;99.90
39815;DHT22;25495;45.948;4.568;2022-08-19T12:06:25;25.20;99.90
39815;DHT22;25495;45.948;4.568;2022-08-19T12:08:54;25.50;99.90
39815;DHT22;25495;45.948;4.568;2022-08-19T12:11:21;25.40;99.90
39815;DHT22;25495;45.948;4.568;2022-08-19T12:13:46;25.70;99.90
39815;DHT22;25495;45.948;4.568;2022-08-19T12:16:18;26.00;99.90
39815;DHT22;25495;45.948;4.568;2022-08-19T12:18:46;26.20;99.90
39815;DHT22;25495;45.948;4.568;2022-08-19T12:21:16;25.70;99.70
39815;DHT22;25495;45.948;4.568;2022-08-19T12:23:43;25.30;99.00
39815;DHT22;25495;45.948;4.568;2022-08-19T12:26:11;25.40;99.90
39815;DHT22;25495;45.948;4.568;2022-08-19T12:28:38;25.10;99.90
39815;DHT22;25495;45.948;4.568;2022-08-19T12:31:04;24.10;99.90
39815;DHT22;25495;45.948;4.568;2022-08-19T12:33:31;23.90;99.90
39815;DHT22;25495;45.948;4.568;2022-08-19T12:36:02;24.10;99.90
39815;DHT22;25495;45.948;4.568;2022-08-19T12:38:28;24.80;99.90
39815;DHT22;25495;45.948;4.568;2022-08-19T12:40:54;25.10;99.90
39815;DHT22;25495;45.948;4.568;2022-08-19T12:43:20;24.90;99.90
39815;DHT22;25495;45.948;4.568;2022-08-19T12:45:46;25.30;99.70
39815;DHT22;25495;45.948;4.568;2022-08-19T12:48:12;25.00;98.40
39815;DHT22;25495;45.948;4.568;2022-08-19T12:50:42;24.60;99.90
39815;DHT22;25495;45.948;4.568;2022-08-19T12:53:08;24.50;99.90
39815;DHT22;25495;45.948;4.568;2022-08-19T12:55:34;24.20;99.10
39815;DHT22;25495;45.948;4.568;2022-08-19T12:58:00;24.30;99.90
39815;DHT22;25495;45.948;4.568;2022-08-19T13:00:29;24.00;99.00
39815;DHT22;25495;45.948;4.568;2022-08-19T13:02:56;24.50;99.40
39815;DHT22;25495;45.948;4.568;2022-08-19T13:05:25;24.80;99.00
39815;DHT22;25495;45.948;4.568;2022-08-19T13:07:53;24.90;97.40
39815;DHT22;25495;45.948;4.568;2022-08-19T13:10:25;24.70;98.80
39815;DHT22;25495;45.948;4.568;2022-08-19T13:12:52;25.00;99.30
39815;DHT22;25495;45.948;4.568;2022-08-19T13:15:20;24.20;98.30
39815;DHT22;25495;45.948;4.568;2022-08-19T13:17:47;23.70;99.90
39815;DHT22;25495;45.948;4.568;2022-08-19T13:20:18;23.80;99.90
39815;DHT22;25495;45.948;4.568;2022-08-19T13:22:46;23.70;99.90
39815;DHT22;25495;45.948;4.568;2022-08-19T13:25:12;24.50;99.90
39815;DHT22;25495;45.948;4.568;2022-08-19T13:27:39;24.90;99.10
39815;DHT22;25495;45.948;4.568;2022-08-19T13:30:08;25.20;99.90
39815;DHT22;25495;45.948;4.568;2022-08-19T13:32:53;25.20;97.30
39815;DHT22;25495;45.948;4.568;2022-08-19T13:38:06;25.30;98.40
39815;DHT22;25495;45.948;4.568;2022-08-19T13:40:32;25.20;97.70
39815;DHT22;25495;45.948;4.568;2022-08-19T13:43:03;24.70;97.40
39815;DHT22;25495;45.948;4.568;2022-08-19T13:45:31;24.20;98.60
39815;DHT22;25495;45.948;4.568;2022-08-19T13:48:02;24.30;99.00
39815;DHT22;25495;45.948;4.568;2022-08-19T13:50:32;24.70;98.70
39815;DHT22;25495;45.948;4.568;2022-08-19T13:52:59;25.10;99.00
39815;DHT22;25495;45.948;4.568;2022-08-19T13:55:25;25.20;99.00
39815;DHT22;25495;45.948;4.568;2022-08-19T13:57:57;25.40;98.90
39815;DHT22;25495;45.948;4.568;2022-08-19T14:00:25;25.30;98.60
39815;DHT22;25495;45.948;4.568;2022-08-19T14:02:54;24.90;97.90
39815;DHT22;25495;45.948;4.568;2022-08-19T14:05:21;25.20;99.60
39815;DHT22;25495;45.948;4.568;2022-08-19T14:07:47;25.40;99.10
39815;DHT22;25495;45.948;4.568;2022-08-19T14:10:14;25.60;99.00
39815;DHT22;25495;45.948;4.568;2022-08-19T14:12:41;25.70;98.30
39815;DHT22;25495;45.948;4.568;2022-08-19T14:15:08;25.50;98.50
39815;DHT22;25495;45.948;4.568;2022-08-19T14:17:37;25.20;99.30
39815;DHT22;25495;45.948;4.568;2022-08-19T14:20:07;25.40;98.90
39815;DHT22;25495;45.948;4.568;2022-08-19T14:22:38;25.60;99.60
39815;DHT22;25495;45.948;4.568;2022-08-19T14:25:09;25.70;99.60
39815;DHT22;25495;45.948;4.568;2022-08-19T14:27:37;25.20;99.60
39815;DHT22;25495;45.948;4.568;2022-08-19T14:30:05;25.60;99.90
39815;DHT22;25495;45.948;4.568;2022-08-19T14:32:32;25.50;99.60
39815;DHT22;25495;45.948;4.568;2022-08-19T14:34:58;25.30;98.70
39815;DHT22;25495;45.948;4.568;2022-08-19T14:37:24;25.20;98.70
39815;DHT22;25495;45.948;4.568;2022-08-19T14:39:50;25.30;99.10
39815;DHT22;25495;45.948;4.568;2022-08-19T14:42:16;25.50;99.10
39815;DHT22;25495;45.948;4.568;2022-08-19T14:47:10;23.80;99.50
39815;DHT22;25495;45.948;4.568;2022-08-19T14:49:36;23.80;99.90
39815;DHT22;25495;45.948;4.568;2022-08-19T14:52:02;23.60;99.90
39815;DHT22;25495;45.948;4.568;2022-08-19T14:54:28;23.40;99.90
39815;DHT22;25495;45.948;4.568;2022-08-19T14:56:54;23.20;99.90
39815;DHT22;25495;45.948;4.568;2022-08-19T14:59:20;22.70;99.90
39815;DHT22;25495;45.948;4.568;2022-08-19T15:01:46;23.00;99.90
39815;DHT22;25495;45.948;4.568;2022-08-19T15:04:12;23.20;99.90
39815;DHT22;25495;45.948;4.568;2022-08-19T15:06:38;23.20;99.90
39815;DHT22;25495;45.948;4.568;2022-08-19T15:09:04;23.30;99.90
39815;DHT22;25495;45.948;4.568;2022-08-19T15:11:30;23.40;99.90
39815;DHT22;25495;45.948;4.568;2022-08-19T15:13:58;23.40;99.90
39815;DHT22;25495;45.948;4.568;2022-08-19T15:16:26;23.50;99.90
39815;DHT22;25495;45.948;4.568;2022-08-19T15:18:55;23.50;99.90
39815;DHT22;25495;45.948;4.568;2022-08-19T15:21:21;23.70;99.90
39815;DHT22;25495;45.948;4.568;2022-08-19T15:23:50;23.90;99.90
39815;DHT22;25495;45.948;4.568;2022-08-19T15:26:17;23.90;99.90
39815;DHT22;25495;45.948;4.568;2022-08-19T15:28:44;23.60;99.90
39815;DHT22;25495;45.948;4.568;2022-08-19T15:31:12;23.00;99.90
39815;DHT22;25495;45.948;4.568;2022-08-19T15:33:38;22.80;99.90
39815;DHT22;25495;45.948;4.568;2022-08-19T15:36:09;22.80;99.90
39815;DHT22;25495;45.948;4.568;2022-08-19T15:38:38;22.70;99.90
39815;DHT22;25495;45.948;4.568;2022-08-19T15:41:05;22.80;99.90
39815;DHT22;25495;45.948;4.568;2022-08-19T15:44:02;22.70;99.90
39815;DHT22;25495;45.948;4.568;2022-08-19T15:46:32;22.70;99.90
39815;DHT22;25495;45.948;4.568;2022-08-19T15:48:58;22.50;99.90
39815;DHT22;25495;45.948;4.568;2022-08-19T15:51:26;22.80;99.90
39815;DHT22;25495;45.948;4.568;2022-08-19T15:53:52;23.00;99.90
39815;DHT22;25495;45.948;4.568;2022-08-19T15:56:18;23.30;99.90
39815;DHT22;25495;45.948;4.568;2022-08-19T15:58:44;23.20;99.90
39815;DHT22;25495;45.948;4.568;2022-08-19T16:01:28;22.80;99.90
39815;DHT22;25495;45.948;4.568;2022-08-19T16:04:13;22.60;99.90
39815;DHT22;25495;45.948;4.568;2022-08-19T16:06:59;22.50;99.90